createdAt,value
2022-11-29T03:45:44.910Z,3.60
2022-11-29T03:46:45.042Z,7.70
2022-11-29T03:47:44.988Z,7.10
2022-11-29T03:48:44.920Z,5.80
2022-11-29T03:49:44.838Z,8.60
2022-11-29T03:50:44.784Z,5.70
2022-11-29T03:51:44.760Z,6.10
2022-11-29T03:52:44.766Z,6.40
2022-11-29T03:53:46.006Z,6.80
2022-11-29T03:54:46.248Z,6.70
2022-11-29T03:55:46.000Z,5.90
2022-11-29T03:56:45.974Z,6.60
2022-11-29T03:57:45.948Z,6.50
2022-11-29T03:58:45.979Z,6.80
2022-11-29T03:59:45.945Z,5.50
2022-11-29T04:00:45.899Z,6.50
2022-11-29T04:01:45.987Z,6.70
2022-11-29T04:02:45.948Z,6.70
2022-11-29T04:03:45.844Z,5.30
2022-11-29T04:04:46.044Z,6.60
2022-11-29T04:05:45.877Z,5.20
2022-11-29T04:06:45.880Z,4.80
2022-11-29T04:07:45.921Z,5.00
2022-11-29T04:08:45.827Z,6.40
2022-11-29T04:09:45.810Z,6.10
2022-11-29T04:10:45.758Z,6.60
2022-11-29T04:11:45.884Z,6.10
2022-11-29T04:12:45.806Z,6.10
2022-11-29T04:13:45.753Z,8.20
2022-11-29T04:14:45.907Z,5.40
2022-11-29T04:15:45.796Z,6.60
2022-11-29T04:16:45.754Z,6.80
2022-11-29T04:17:45.746Z,7.20
2022-11-29T04:18:45.692Z,5.20
2022-11-29T04:19:45.721Z,5.80
2022-11-29T04:20:48.370Z,5.70
2022-11-29T04:21:46.762Z,6.30
2022-11-29T04:22:45.680Z,7.10
2022-11-29T04:23:45.666Z,4.80
2022-11-29T04:24:45.907Z,5.50
2022-11-29T04:25:45.646Z,7.90
2022-11-29T04:26:45.647Z,5.20
2022-11-29T04:27:45.643Z,6.30
2022-11-29T04:28:45.609Z,5.90
2022-11-29T04:29:45.657Z,8.30
2022-11-29T04:30:45.654Z,5.10
2022-11-29T04:31:45.607Z,6.30
2022-11-29T04:32:45.581Z,6.60
2022-11-29T04:33:45.572Z,6.50
2022-11-29T04:34:45.737Z,3.90
2022-11-29T04:35:45.525Z,5.50
2022-11-29T04:36:45.574Z,6.30
2022-11-29T04:37:45.555Z,5.80
2022-11-29T04:38:45.503Z,5.70
2022-11-29T04:39:45.557Z,5.20
2022-11-29T04:40:45.463Z,5.30
2022-11-29T04:41:45.549Z,5.70
2022-11-29T04:42:45.473Z,6.10
2022-11-29T04:43:45.465Z,4.90
2022-11-29T04:44:45.659Z,5.00
2022-11-29T04:45:45.455Z,5.30
2022-11-29T04:46:45.529Z,4.80
2022-11-29T04:47:45.478Z,4.50
2022-11-29T04:48:45.417Z,4.60
2022-11-29T04:49:45.438Z,6.10
2022-11-29T04:50:45.446Z,7.20
2022-11-29T04:51:45.391Z,5.50
2022-11-29T04:52:45.449Z,5.70
2022-11-29T04:53:45.364Z,5.60
2022-11-29T04:54:45.527Z,5.80
2022-11-29T04:55:45.385Z,5.80
2022-11-29T04:56:45.427Z,5.70
2022-11-29T04:57:45.323Z,5.10
2022-11-29T04:58:45.306Z,5.10
2022-11-29T04:59:45.355Z,5.20
2022-11-29T05:00:45.327Z,6.10
2022-11-29T05:01:45.345Z,6.90
2022-11-29T05:02:45.345Z,6.40
2022-11-29T05:03:46.931Z,6.40
2022-11-29T05:04:45.512Z,6.10
2022-11-29T05:05:45.299Z,6.70
2022-11-29T05:06:45.222Z,5.60
2022-11-29T05:07:45.228Z,6.10
2022-11-29T05:08:45.206Z,6.20
2022-11-29T05:09:45.223Z,5.60
2022-11-29T05:10:45.169Z,5.60
2022-11-29T05:11:45.178Z,7.50
2022-11-29T05:12:45.218Z,7.00
2022-11-29T05:13:45.158Z,5.90
2022-11-29T05:14:45.357Z,6.50
2022-11-29T05:15:45.229Z,4.90
2022-11-29T05:16:45.115Z,7.10
2022-11-29T05:17:45.176Z,4.60
2022-11-29T05:18:45.046Z,7.70
2022-11-29T05:19:45.123Z,6.20
2022-11-29T05:20:45.085Z,6.80
2022-11-29T05:21:45.085Z,6.50
2022-11-29T05:22:45.073Z,7.80
2022-11-29T05:23:45.076Z,6.60
2022-11-29T05:24:45.225Z,6.80
2022-11-29T05:25:45.091Z,6.20
2022-11-29T05:26:45.050Z,7.50
2022-11-29T05:27:45.031Z,5.40
2022-11-29T05:28:45.044Z,8.50
2022-11-29T05:29:44.947Z,5.70
2022-11-29T05:30:45.024Z,6.60
2022-11-29T05:31:44.947Z,7.90
2022-11-29T05:32:44.955Z,6.20
2022-11-29T05:33:44.948Z,6.80
2022-11-29T05:34:44.925Z,6.60
2022-11-29T05:35:44.954Z,6.80
2022-11-29T05:36:44.926Z,7.30
2022-11-29T05:37:44.919Z,6.90
2022-11-29T05:38:44.927Z,6.80
2022-11-29T05:39:44.903Z,7.50
2022-11-29T05:40:44.897Z,8.20
2022-11-29T05:41:44.935Z,6.90
2022-11-29T05:42:44.929Z,8.30
2022-11-29T05:43:44.864Z,7.80
2022-11-29T05:44:45.002Z,5.70
2022-11-29T05:45:44.811Z,5.30
2022-11-29T05:46:44.872Z,5.80
2022-11-29T05:47:44.830Z,6.10
2022-11-29T05:48:44.788Z,5.30
2022-11-29T05:49:44.780Z,5.10
2022-11-29T05:50:44.803Z,5.50
2022-11-29T05:51:44.744Z,9.60
2022-11-29T05:52:44.805Z,7.70
2022-11-29T05:53:44.724Z,8.20
2022-11-29T05:54:44.943Z,9.30
2022-11-29T05:55:44.759Z,8.00
2022-11-29T05:56:44.729Z,7.90
2022-11-29T05:57:44.708Z,5.80
2022-11-29T05:58:44.683Z,8.40
2022-11-29T05:59:44.733Z,7.10
2022-11-29T06:00:44.696Z,8.80
2022-11-29T06:01:44.725Z,6.30
2022-11-29T06:02:44.746Z,6.90
2022-11-29T06:03:44.672Z,7.20
2022-11-29T06:04:44.947Z,9.00
2022-11-29T06:05:44.689Z,9.40
2022-11-29T06:06:44.648Z,10.00
2022-11-29T06:07:44.789Z,8.30
2022-11-29T06:08:44.698Z,10.70
2022-11-29T06:09:44.635Z,7.70
2022-11-29T06:10:44.599Z,7.90
2022-11-29T06:11:44.602Z,10.80
2022-11-29T06:12:44.633Z,7.00
2022-11-29T06:13:44.553Z,7.00
2022-11-29T06:14:44.794Z,7.30
2022-11-29T06:15:44.575Z,6.10
2022-11-29T06:16:44.603Z,6.60
2022-11-29T06:17:44.649Z,9.30
2022-11-29T06:18:44.578Z,6.10
2022-11-29T06:19:44.498Z,8.90
2022-11-29T06:20:44.488Z,8.10
2022-11-29T06:21:44.528Z,7.90
2022-11-29T06:22:44.495Z,8.60
2022-11-29T06:23:44.488Z,6.70
2022-11-29T06:24:44.602Z,8.00
2022-11-29T06:25:44.483Z,5.90
2022-11-29T06:26:44.495Z,8.10
2022-11-29T06:27:44.525Z,8.70
2022-11-29T06:28:44.445Z,7.10
2022-11-29T06:29:44.478Z,8.40
2022-11-29T06:30:44.384Z,7.00
2022-11-29T06:31:44.535Z,6.90
2022-11-29T06:32:44.381Z,7.00
2022-11-29T06:33:44.495Z,7.50
2022-11-29T06:34:44.697Z,5.90
2022-11-29T06:35:44.472Z,7.30
2022-11-29T06:36:44.350Z,6.90
2022-11-29T06:37:44.623Z,6.00
2022-11-29T06:38:45.424Z,6.40
2022-11-29T06:39:44.506Z,7.90
2022-11-29T06:40:44.431Z,8.00
2022-11-29T06:41:44.372Z,8.20
2022-11-29T06:42:44.343Z,7.30
2022-11-29T06:43:44.503Z,6.30
2022-11-29T06:44:44.460Z,7.90
2022-11-29T06:45:44.310Z,5.90
2022-11-29T06:46:44.246Z,8.10
2022-11-29T06:47:44.289Z,8.80
2022-11-29T06:48:44.262Z,5.30
2022-11-29T06:49:44.260Z,7.60
2022-11-29T06:50:44.339Z,6.70
2022-11-29T06:51:44.197Z,5.30
2022-11-29T06:52:44.217Z,5.40
2022-11-29T06:53:44.237Z,8.50
2022-11-29T06:54:44.502Z,6.30
2022-11-29T06:55:44.163Z,7.20
2022-11-29T06:56:44.339Z,7.60
2022-11-29T06:57:44.116Z,7.30
2022-11-29T06:58:44.173Z,6.00
2022-11-29T06:59:44.717Z,9.50
2022-11-29T07:00:44.951Z,6.90
2022-11-29T07:01:47.308Z,7.00
2022-11-29T07:02:45.374Z,6.90
2022-11-29T07:03:44.548Z,5.60
2022-11-29T07:04:46.115Z,5.30
2022-11-29T07:05:45.518Z,7.10
2022-11-29T07:06:44.483Z,6.10
2022-11-29T07:07:44.984Z,6.40
2022-11-29T07:08:44.309Z,7.20
2022-11-29T07:09:44.771Z,6.80
2022-11-29T07:10:44.582Z,6.90
2022-11-29T07:11:44.764Z,8.40
2022-11-29T07:12:44.324Z,6.90
2022-11-29T07:13:44.606Z,6.30
2022-11-29T07:14:44.703Z,7.50
2022-11-29T07:15:44.451Z,7.00
2022-11-29T07:16:44.239Z,6.90
2022-11-29T07:17:44.456Z,6.00
2022-11-29T07:18:44.269Z,5.80
2022-11-29T07:19:44.240Z,5.40
2022-11-29T07:20:44.292Z,7.50
2022-11-29T07:21:44.311Z,7.60
2022-11-29T07:22:44.340Z,8.10
2022-11-29T07:23:44.283Z,9.50
2022-11-29T07:24:44.785Z,7.50
2022-11-29T07:25:44.681Z,8.30
2022-11-29T07:26:44.331Z,7.90
2022-11-29T07:27:45.828Z,7.90
2022-11-29T07:28:44.785Z,6.60
2022-11-29T07:29:44.571Z,6.70
2022-11-29T07:30:44.820Z,6.30
2022-11-29T07:31:44.503Z,6.00
2022-11-29T07:32:50.076Z,8.40
2022-11-29T07:33:46.325Z,7.50
2022-11-29T07:34:44.223Z,7.70
2022-11-29T07:35:44.152Z,7.40
2022-11-29T07:36:44.256Z,8.70
2022-11-29T07:37:44.258Z,9.10
2022-11-29T07:38:44.411Z,7.70
2022-11-29T07:39:44.164Z,8.50
2022-11-29T07:40:44.095Z,6.90
2022-11-29T07:41:44.116Z,7.80
2022-11-29T07:42:44.071Z,6.70
2022-11-29T07:43:44.129Z,8.80
2022-11-29T07:44:44.447Z,6.60
2022-11-29T07:45:44.064Z,8.50
2022-11-29T07:46:43.997Z,10.00
2022-11-29T07:47:43.925Z,9.90
2022-11-29T07:48:44.182Z,6.70
2022-11-29T07:49:44.156Z,5.80
2022-11-29T07:50:44.412Z,7.80
2022-11-29T07:51:44.071Z,7.30
2022-11-29T07:52:44.046Z,8.10
2022-11-29T07:53:43.951Z,6.40
2022-11-29T07:54:44.359Z,6.50
2022-11-29T07:55:44.002Z,7.90
2022-11-29T07:56:43.989Z,6.90
2022-11-29T07:57:44.195Z,7.40
2022-11-29T07:58:44.499Z,7.70
2022-11-29T07:59:44.329Z,9.60
2022-11-29T08:00:44.323Z,6.80
2022-11-29T08:01:44.719Z,7.90
2022-11-29T08:02:43.978Z,9.00
2022-11-29T08:03:44.150Z,9.20
2022-11-29T08:06:28.155Z,10.30
2022-11-29T08:07:28.228Z,6.50
2022-11-29T08:08:28.199Z,10.20
2022-11-29T08:09:28.164Z,11.60
2022-11-29T08:10:28.149Z,8.80
2022-11-29T08:11:29.409Z,9.40
2022-11-29T08:12:29.291Z,8.60
2022-11-29T08:13:29.323Z,8.80
2022-11-29T08:14:29.287Z,8.20
2022-11-29T08:15:29.264Z,9.60
2022-11-29T08:16:29.285Z,11.10
2022-11-29T08:17:29.239Z,6.10
2022-11-29T08:18:29.271Z,7.10
2022-11-29T08:19:29.244Z,8.30
2022-11-29T08:20:29.197Z,10.60
2022-11-29T08:21:29.269Z,9.10
2022-11-29T08:22:29.220Z,11.30
2022-11-29T08:23:29.258Z,7.40
2022-11-29T08:24:29.162Z,8.80
2022-11-29T08:25:29.182Z,14.50
2022-11-29T08:26:31.616Z,13.10
2022-11-29T08:27:30.160Z,12.10
2022-11-29T08:28:29.151Z,13.00
2022-11-29T08:29:29.185Z,14.40
2022-11-29T08:30:29.120Z,15.30
2022-11-29T08:31:29.164Z,9.50
2022-11-29T08:32:29.136Z,8.70
2022-11-29T08:33:29.129Z,14.40
2022-11-29T08:34:29.067Z,12.00
2022-11-29T08:35:29.100Z,13.20
2022-11-29T08:36:29.084Z,9.90
2022-11-29T08:37:29.064Z,9.70
2022-11-29T08:38:29.107Z,11.90
2022-11-29T08:39:29.047Z,10.90
2022-11-29T08:40:29.038Z,10.90
2022-11-29T08:41:29.141Z,10.90
2022-11-29T08:42:29.013Z,11.40
2022-11-29T08:43:29.036Z,11.20
2022-11-29T08:44:28.988Z,11.20
2022-11-29T08:45:28.996Z,6.90
2022-11-29T08:46:28.985Z,12.00
2022-11-29T08:47:28.960Z,13.20
2022-11-29T08:48:28.952Z,7.70
2022-11-29T08:49:28.985Z,9.60
2022-11-29T08:50:28.926Z,9.10
2022-11-29T08:51:28.944Z,6.80
2022-11-29T08:52:28.951Z,8.10
2022-11-29T08:53:28.878Z,11.40
2022-11-29T08:54:28.890Z,12.00
2022-11-29T08:55:28.892Z,7.40
2022-11-29T08:57:39.948Z,6.20
2022-11-29T08:58:30.899Z,8.60
2022-11-29T08:59:28.833Z,8.30
2022-11-29T09:00:28.838Z,10.20
2022-11-29T09:01:28.887Z,6.20
2022-11-29T09:02:29.850Z,9.50
2022-11-29T09:03:28.825Z,10.40
2022-11-29T09:04:28.847Z,7.60
2022-11-29T09:05:28.777Z,7.10
2022-11-29T09:06:28.772Z,6.80
2022-11-29T09:07:28.776Z,5.50
2022-11-29T09:08:28.781Z,9.00
2022-11-29T09:09:28.751Z,9.30
2022-11-29T09:10:28.709Z,9.70
2022-11-29T09:11:28.717Z,9.60
2022-11-29T09:12:28.727Z,7.20
2022-11-29T09:13:28.722Z,6.40
2022-11-29T09:14:28.736Z,6.10
2022-11-29T09:15:28.670Z,9.00
2022-11-29T09:16:28.757Z,6.20
2022-11-29T09:17:28.697Z,9.10
2022-11-29T09:18:28.646Z,5.30
2022-11-29T09:19:28.672Z,6.30
2022-11-29T09:20:28.656Z,7.00
2022-11-29T09:21:28.619Z,6.00
2022-11-29T09:22:28.589Z,7.10
2022-11-29T09:23:28.610Z,6.80
2022-11-29T09:24:28.624Z,7.40
2022-11-29T09:25:28.589Z,7.50
2022-11-29T09:26:28.576Z,7.30
2022-11-29T09:27:28.567Z,6.30
2022-11-29T09:28:28.567Z,7.90
2022-11-29T09:29:28.594Z,7.10
2022-11-29T09:30:28.538Z,5.40
2022-11-29T09:31:28.541Z,11.50
2022-11-29T09:32:28.565Z,8.20
2022-11-29T09:33:28.512Z,5.40
2022-11-29T09:34:28.540Z,7.00
2022-11-29T09:35:28.477Z,9.70
2022-11-29T09:36:29.409Z,6.00
2022-11-29T09:37:29.513Z,6.30
2022-11-29T09:38:28.477Z,6.70
2022-11-29T09:39:28.464Z,7.70
2022-11-29T09:40:28.420Z,8.60
2022-11-29T09:41:28.444Z,6.30
2022-11-29T09:42:28.436Z,7.30
2022-11-29T09:43:28.446Z,10.20
2022-11-29T09:44:28.470Z,8.40
2022-11-29T09:45:28.414Z,7.80
2022-11-29T09:46:28.394Z,7.90
2022-11-29T09:47:28.378Z,6.90
2022-11-29T09:48:28.361Z,8.40
2022-11-29T09:49:28.378Z,8.20
2022-11-29T09:50:28.327Z,7.70
2022-11-29T09:51:28.318Z,8.90
2022-11-29T09:52:28.296Z,7.40
2022-11-29T09:53:28.355Z,8.20
2022-11-29T09:54:28.330Z,6.50
2022-11-29T09:55:28.328Z,7.60
2022-11-29T09:56:28.320Z,7.00
2022-11-29T09:57:28.309Z,6.80
2022-11-29T09:58:28.305Z,7.30
2022-11-29T09:59:28.290Z,6.60
2022-11-29T10:00:28.225Z,8.60
2022-11-29T10:01:28.345Z,10.10
2022-11-29T10:02:28.286Z,7.60
2022-11-29T10:03:28.261Z,6.30
2022-11-29T10:04:28.297Z,5.70
2022-11-29T10:05:28.205Z,7.50
2022-11-29T10:06:28.216Z,5.10
2022-11-29T10:07:28.233Z,7.10
2022-11-29T10:08:28.162Z,7.80
2022-11-29T10:09:33.380Z,7.80
2022-11-29T10:10:30.151Z,13.50
2022-11-29T10:11:28.161Z,6.60
2022-11-29T10:12:28.168Z,7.20
2022-11-29T10:13:28.145Z,5.70
2022-11-29T10:14:28.136Z,7.80
2022-11-29T10:15:28.137Z,8.30
2022-11-29T10:16:28.157Z,6.10
2022-11-29T10:17:28.105Z,5.90
2022-11-29T10:18:28.078Z,5.10
2022-11-29T10:19:28.095Z,3.70
2022-11-29T10:20:28.038Z,4.90
2022-11-29T10:21:28.042Z,4.60
2022-11-29T10:22:28.062Z,5.00
2022-11-29T10:23:28.038Z,5.00
2022-11-29T10:24:28.072Z,4.80
2022-11-29T10:25:28.022Z,4.60
2022-11-29T10:26:33.552Z,5.00
2022-11-29T10:27:27.964Z,5.30
2022-11-29T10:28:27.984Z,5.30
2022-11-29T10:29:27.968Z,5.00
2022-11-29T10:30:28.040Z,4.40
2022-11-29T10:31:27.945Z,5.10
2022-11-29T10:32:27.952Z,5.10
2022-11-29T10:33:27.944Z,5.90
2022-11-29T10:34:27.945Z,4.90
2022-11-29T10:35:27.895Z,4.00
2022-11-29T10:36:27.915Z,3.90
2022-11-29T10:37:27.921Z,3.90
2022-11-29T10:38:31.817Z,4.70
2022-11-29T10:39:28.911Z,3.60
2022-11-29T10:40:27.860Z,4.30
2022-11-29T10:41:27.865Z,4.90
2022-11-29T10:42:27.810Z,5.70
2022-11-29T10:43:27.850Z,5.60
2022-11-29T10:44:27.820Z,3.40
2022-11-29T10:45:27.846Z,4.80
2022-11-29T10:46:27.816Z,5.00
2022-11-29T10:47:27.800Z,3.70
2022-11-29T10:48:27.795Z,4.60
2022-11-29T10:49:27.808Z,4.70
2022-11-29T10:50:27.775Z,4.40
2022-11-29T10:51:27.789Z,5.30
2022-11-29T10:52:27.797Z,3.90
2022-11-29T10:53:27.744Z,3.90
2022-11-29T10:54:27.707Z,5.30
2022-11-29T10:55:27.728Z,5.40
2022-11-29T10:56:27.706Z,5.50
2022-11-29T10:57:27.654Z,5.70
2022-11-29T10:58:28.855Z,4.50
2022-11-29T10:59:28.697Z,4.80
2022-11-29T11:00:27.619Z,6.20
2022-11-29T11:01:27.713Z,6.20
2022-11-29T11:02:27.691Z,5.70
2022-11-29T11:03:27.656Z,6.20
2022-11-29T11:04:27.673Z,5.70
2022-11-29T11:05:27.628Z,7.40
2022-11-29T11:06:27.652Z,6.60
2022-11-29T11:07:27.604Z,8.70
2022-11-29T11:08:27.598Z,5.60
2022-11-29T11:09:27.589Z,6.40
2022-11-29T11:10:27.575Z,7.80
2022-11-29T11:11:27.556Z,6.10
2022-11-29T11:12:27.539Z,7.60
2022-11-29T11:13:27.536Z,9.40
2022-11-29T11:14:27.560Z,5.10
2022-11-29T11:15:27.508Z,7.80
2022-11-29T11:16:28.914Z,7.80
2022-11-29T11:17:27.554Z,6.90
2022-11-29T11:18:27.475Z,6.80
2022-11-29T11:19:27.513Z,7.70
2022-11-29T11:20:27.450Z,7.90
2022-11-29T11:21:27.470Z,7.20
2022-11-29T11:22:27.454Z,6.40
2022-11-29T11:23:27.424Z,7.40
2022-11-29T11:24:27.442Z,6.50
2022-11-29T11:25:27.427Z,8.10
2022-11-29T11:26:27.423Z,8.00
2022-11-29T11:27:27.365Z,10.50
2022-11-29T11:28:27.394Z,7.10
2022-11-29T11:29:27.387Z,7.30
2022-11-29T11:30:27.550Z,8.20
2022-11-29T11:31:27.362Z,6.00
2022-11-29T11:32:27.330Z,6.90
2022-11-29T11:33:27.360Z,11.00
2022-11-29T11:34:28.373Z,6.90
2022-11-29T11:35:27.311Z,10.30
2022-11-29T11:36:27.355Z,7.30
2022-11-29T11:37:27.307Z,4.90
2022-11-29T11:38:27.293Z,7.10
2022-11-29T11:39:27.296Z,6.50
2022-11-29T11:40:27.379Z,6.60
2022-11-29T11:41:27.254Z,7.00
2022-11-29T11:42:27.209Z,7.40
2022-11-29T11:43:27.248Z,7.60
2022-11-29T11:44:46.400Z,7.50
2022-11-29T11:45:29.206Z,8.10
2022-11-29T11:46:27.264Z,9.70
2022-11-29T11:47:27.195Z,8.40
2022-11-29T11:48:27.172Z,7.20
2022-11-29T11:49:27.183Z,7.90
2022-11-29T11:50:27.196Z,7.30
2022-11-29T11:51:27.138Z,5.00
2022-11-29T11:52:27.133Z,6.00
2022-11-29T11:53:27.115Z,5.70
2022-11-29T11:54:27.125Z,4.90
2022-11-29T11:55:27.149Z,4.30
2022-11-29T11:56:27.102Z,4.90
2022-11-29T11:57:27.086Z,4.30
2022-11-29T11:58:27.055Z,5.60
2022-11-29T11:59:27.067Z,5.20
2022-11-29T12:00:55.454Z,3.90
2022-11-29T12:01:29.036Z,4.80
2022-11-29T12:02:27.224Z,5.50
2022-11-29T12:03:27.017Z,6.60
2022-11-29T12:04:27.031Z,5.40
2022-11-29T12:05:27.046Z,6.00
2022-11-29T12:06:27.032Z,6.50
2022-11-29T12:07:59.344Z,6.50
2022-11-29T12:08:29.057Z,5.40
2022-11-29T12:09:27.007Z,5.70
2022-11-29T12:10:26.979Z,5.60
2022-11-29T12:11:26.946Z,7.90
2022-11-29T12:12:26.959Z,8.20
2022-11-29T12:13:26.938Z,8.90
2022-11-29T12:14:26.950Z,6.40
2022-11-29T12:15:26.964Z,8.50
2022-11-29T12:16:26.898Z,6.60
2022-11-29T12:17:26.895Z,5.60
2022-11-29T12:18:26.893Z,6.70
2022-11-29T12:19:26.885Z,6.40
2022-11-29T12:20:26.874Z,6.70
2022-11-29T12:21:26.860Z,8.80
2022-11-29T12:22:27.843Z,6.30
2022-11-29T12:23:26.848Z,6.40
2022-11-29T12:24:26.809Z,6.70
2022-11-29T12:25:26.961Z,7.70
2022-11-29T12:26:55.810Z,6.90
2022-11-29T12:27:28.788Z,6.20
2022-11-29T12:28:26.794Z,6.40
2022-11-29T12:29:26.749Z,6.90
2022-11-29T12:30:26.813Z,6.70
2022-11-29T12:31:26.781Z,8.40
2022-11-29T12:32:26.775Z,8.10
2022-11-29T12:33:26.716Z,7.00
2022-11-29T12:34:26.742Z,5.10
2022-11-29T12:35:26.717Z,5.60
2022-11-29T12:36:26.711Z,6.10
2022-11-29T12:37:26.684Z,6.20
2022-11-29T12:38:26.657Z,7.30
2022-11-29T12:39:26.696Z,5.70
2022-11-29T12:40:26.679Z,6.80
2022-11-29T12:41:26.656Z,6.80
2022-11-29T12:42:26.673Z,6.90
2022-11-29T12:43:26.624Z,5.80
2022-11-29T12:44:26.620Z,6.90
2022-11-29T12:45:26.622Z,6.90
2022-11-29T12:46:26.681Z,7.70
2022-11-29T12:47:41.899Z,8.10
2022-11-29T12:48:28.593Z,8.40
2022-11-29T12:49:26.576Z,8.10
2022-11-29T12:50:26.584Z,8.30
2022-11-29T12:51:26.538Z,9.90
2022-11-29T12:52:26.550Z,9.10
2022-11-29T12:53:27.678Z,8.20
2022-11-29T12:54:27.548Z,5.70
2022-11-29T12:55:26.509Z,7.70
2022-11-29T12:56:26.490Z,8.20
2022-11-29T12:57:26.513Z,9.40
2022-11-29T12:58:26.501Z,8.60
2022-11-29T12:59:26.463Z,8.80
2022-11-29T13:00:26.479Z,8.50
2022-11-29T13:01:26.496Z,8.30
2022-11-29T13:02:26.442Z,8.60
2022-11-29T13:03:26.438Z,9.20
2022-11-29T13:04:26.439Z,8.90
2022-11-29T13:05:26.409Z,11.20
2022-11-29T13:06:26.425Z,9.10
2022-11-29T13:07:26.475Z,8.20
2022-11-29T13:08:26.413Z,7.60
2022-11-29T13:09:26.384Z,8.50
2022-11-29T13:10:26.357Z,10.10
2022-11-29T13:11:26.374Z,7.40
2022-11-29T13:12:26.341Z,9.20
2022-11-29T13:13:26.357Z,7.10
2022-11-29T13:14:43.317Z,10.50
2022-11-29T13:15:28.338Z,11.90
2022-11-29T13:16:30.864Z,9.40
2022-11-29T13:17:28.282Z,8.30
2022-11-29T13:18:26.294Z,11.70
2022-11-29T13:19:26.296Z,9.70
2022-11-29T13:20:26.289Z,11.80
2022-11-29T13:21:26.257Z,7.40
2022-11-29T13:22:26.223Z,9.30
2022-11-29T13:23:45.488Z,11.30
2022-11-29T13:24:27.230Z,7.50
2022-11-29T13:25:26.231Z,9.80
2022-11-29T13:26:26.211Z,10.10
2022-11-29T13:27:26.192Z,10.40
2022-11-29T13:28:26.189Z,10.90
2022-11-29T13:29:26.160Z,10.70
2022-11-29T13:30:26.183Z,8.50
2022-11-29T13:31:26.210Z,10.50
2022-11-29T13:32:26.141Z,9.90
2022-11-29T13:33:26.129Z,10.20
2022-11-29T13:34:26.120Z,11.40
2022-11-29T13:35:26.146Z,12.00
2022-11-29T13:36:26.123Z,12.70
2022-11-29T13:37:26.129Z,11.20
2022-11-29T13:38:26.080Z,11.20
2022-11-29T13:39:26.074Z,9.80
2022-11-29T13:40:26.119Z,11.80
2022-11-29T13:41:26.114Z,11.70
2022-11-29T13:42:26.051Z,13.10
2022-11-29T13:43:26.377Z,12.40
2022-11-29T13:44:26.010Z,11.20
2022-11-29T13:45:26.058Z,13.00
2022-11-29T13:46:26.099Z,12.60
2022-11-29T13:47:26.011Z,10.30
2022-11-29T13:48:28.134Z,12.40
2022-11-29T13:49:26.957Z,16.00
2022-11-29T13:50:25.966Z,14.20
2022-11-29T13:51:25.969Z,11.70
2022-11-29T13:52:25.928Z,13.80
2022-11-29T13:53:25.962Z,12.30
2022-11-29T13:54:25.948Z,12.20
2022-11-29T13:55:25.956Z,13.60
2022-11-29T13:56:25.917Z,13.30
2022-11-29T13:57:25.895Z,14.10
2022-11-29T13:58:25.883Z,12.70
2022-11-29T13:59:25.912Z,12.20
2022-11-29T14:00:25.879Z,12.50
2022-11-29T14:01:25.877Z,14.40
2022-11-29T14:02:25.869Z,15.40
2022-11-29T14:03:25.846Z,13.40
2022-11-29T14:04:25.823Z,13.50
2022-11-29T14:06:13.131Z,12.00
2022-11-29T14:11:05.788Z,13.40
2022-11-29T14:12:08.060Z,17.80
2022-11-29T14:16:02.319Z,12.10
2022-11-29T14:20:58.107Z,12.60
2022-11-29T14:21:59.786Z,12.70
2022-11-29T14:23:32.727Z,12.40
2022-11-29T14:26:10.986Z,13.60
2022-11-29T14:30:49.346Z,12.40
2022-11-29T14:31:24.228Z,10.80
2022-11-29T14:35:00.047Z,12.80
2022-11-29T14:36:15.283Z,13.40
2022-11-29T14:36:53.601Z,15.60
2022-11-29T14:39:09.813Z,15.90
2022-11-29T14:40:24.620Z,13.20
2022-11-29T14:41:38.291Z,18.10
2022-11-29T14:44:36.174Z,16.20
2022-11-29T14:45:36.181Z,16.90
2022-11-29T14:46:36.708Z,17.00
2022-11-29T14:47:39.442Z,14.20
2022-11-29T14:48:44.439Z,17.00
2022-11-29T14:49:49.785Z,18.80
2022-11-29T14:51:08.824Z,16.10
2022-11-29T14:53:02.739Z,14.40
2022-11-29T14:54:06.007Z,13.60
2022-11-29T14:55:06.295Z,15.90
2022-11-29T14:56:05.517Z,17.20
2022-11-29T14:57:05.001Z,18.40
2022-11-29T14:59:20.681Z,16.20
2022-11-29T15:00:49.908Z,16.20
2022-11-29T15:06:20.914Z,18.20
2022-11-29T15:07:34.837Z,20.60
2022-11-29T15:10:07.906Z,20.90
2022-11-29T15:11:32.039Z,22.40
2022-11-29T15:15:01.726Z,19.30
2022-11-29T15:16:07.428Z,14.50
2022-11-29T15:17:02.364Z,18.60
2022-11-29T15:18:01.876Z,14.30
2022-11-29T15:19:01.666Z,17.80
2022-11-29T15:25:25.610Z,15.70
2022-11-29T15:26:28.009Z,16.30
2022-11-29T15:27:39.861Z,19.50
2022-11-29T15:37:04.857Z,20.90
2022-11-29T15:38:06.486Z,17.30
2022-11-29T15:39:08.248Z,15.40
2022-11-29T15:40:54.030Z,16.50
2022-11-29T15:45:07.639Z,18.70
2022-11-29T15:46:06.887Z,18.50
2022-11-29T15:47:16.517Z,18.50
2022-11-29T15:48:37.973Z,20.90
2022-11-29T15:53:05.658Z,17.20
2022-11-29T15:54:12.809Z,15.50
2022-11-29T15:59:18.631Z,22.60
2022-11-29T16:00:31.828Z,22.90
2022-11-29T16:03:38.505Z,15.70
2022-11-29T16:04:46.835Z,20.00
2022-11-29T16:08:02.208Z,21.40
2022-11-29T16:10:35.023Z,19.90
2022-11-29T16:13:00.565Z,16.10
2022-11-29T16:14:16.601Z,20.60
2022-11-29T16:15:07.446Z,14.50
2022-11-29T16:16:16.470Z,15.70
2022-11-29T16:17:18.257Z,15.70
2022-11-29T16:20:58.921Z,13.50
2022-11-29T16:23:30.387Z,17.90
2022-11-29T16:26:46.988Z,20.10
2022-11-29T16:32:25.975Z,20.60
2022-11-29T16:34:00.836Z,22.40
2022-11-29T16:34:30.665Z,20.30
2022-11-29T16:37:38.749Z,15.50
2022-11-29T16:38:39.184Z,17.40
2022-11-29T16:39:39.408Z,14.80
2022-11-29T16:40:39.425Z,14.90
2022-11-29T16:41:38.975Z,17.80
2022-11-29T16:42:38.787Z,14.90
2022-11-29T16:43:38.944Z,16.90
2022-11-29T16:45:14.660Z,17.20
2022-11-29T16:48:52.115Z,14.50
2022-11-29T16:49:50.908Z,15.10
2022-11-29T16:51:40.874Z,15.50
2022-11-29T16:54:21.637Z,16.40
2022-11-29T16:54:57.038Z,15.20
2022-11-29T16:56:05.479Z,13.60
2022-11-29T16:59:20.807Z,17.00
2022-11-29T16:59:25.003Z,15.00
2022-11-29T17:00:05.924Z,13.40
2022-11-29T17:01:08.651Z,12.00
2022-11-29T17:02:06.939Z,13.90
2022-11-29T17:03:11.677Z,15.50
2022-11-29T17:04:36.109Z,16.10
2022-11-29T17:05:05.220Z,15.20
2022-11-29T17:06:03.564Z,13.50
2022-11-29T17:10:41.823Z,15.60
2022-11-29T17:11:42.498Z,14.20
2022-11-29T17:12:47.613Z,16.90
2022-11-29T17:13:42.380Z,15.60
2022-11-29T17:14:42.217Z,18.30
2022-11-29T17:17:08.688Z,16.60
2022-11-29T17:18:09.077Z,19.30
2022-11-29T17:19:18.356Z,16.30
2022-11-29T17:20:17.233Z,14.30
2022-11-29T17:21:18.126Z,16.80
2022-11-29T17:22:52.998Z,17.10
2022-11-29T17:23:20.900Z,16.30
2022-11-29T17:24:30.041Z,15.50
2022-11-29T17:25:14.847Z,14.00
2022-11-29T17:26:27.665Z,14.90
2022-11-29T17:27:29.692Z,13.40
2022-11-29T17:28:13.694Z,15.60
2022-11-29T17:29:13.400Z,16.30
2022-11-29T17:30:12.258Z,17.80
2022-11-29T17:31:15.296Z,14.30
2022-11-29T17:32:16.185Z,17.50
2022-11-29T17:33:11.824Z,12.20
2022-11-29T17:34:12.765Z,14.50
2022-11-29T17:35:11.782Z,14.50
2022-11-29T17:36:12.211Z,16.20
2022-11-29T17:37:12.188Z,13.70
2022-11-29T17:38:11.850Z,14.70
2022-11-29T17:39:12.297Z,13.40
2022-11-29T17:40:12.575Z,15.60
2022-11-29T17:41:13.911Z,16.10
2022-11-29T17:42:13.164Z,15.50
2022-11-29T17:43:15.926Z,13.90
2022-11-29T17:44:13.516Z,16.50
2022-11-29T17:45:23.850Z,16.40
2022-11-29T17:49:43.366Z,13.30
2022-11-29T17:50:43.878Z,19.90
2022-11-29T17:51:52.106Z,18.60
2022-11-29T17:52:44.297Z,14.90
2022-11-29T17:53:43.436Z,15.40
2022-11-29T17:54:43.453Z,14.70
2022-11-29T17:55:43.634Z,14.60
2022-11-29T17:56:43.542Z,13.00
2022-11-29T17:57:50.784Z,12.30
2022-11-29T17:58:52.061Z,17.50
2022-11-29T18:00:55.434Z,13.30
2022-11-29T18:03:19.891Z,10.80
2022-11-29T18:04:37.711Z,13.20
2022-11-29T18:07:54.023Z,11.30
2022-11-29T18:10:15.473Z,11.90
2022-11-29T18:15:41.952Z,14.70
2022-11-29T18:22:53.989Z,12.00
2022-11-29T18:24:11.089Z,12.20
2022-11-29T18:31:01.975Z,9.00
2022-11-29T18:48:52.780Z,17.40
2022-11-29T18:49:52.251Z,13.40
2022-11-29T18:50:52.155Z,11.20
2022-11-29T18:51:52.069Z,13.10
2022-11-29T18:52:51.986Z,13.60
2022-11-29T18:53:52.500Z,11.90
2022-11-29T18:54:51.922Z,16.20
2022-11-29T18:55:51.967Z,9.90
2022-11-29T18:56:51.934Z,13.00
2022-11-29T18:57:51.900Z,12.00
2022-11-29T18:58:56.727Z,16.80
2022-11-29T18:59:53.991Z,18.20
2022-11-29T19:00:51.930Z,15.70
2022-11-29T19:01:51.984Z,16.10
2022-11-29T19:02:51.940Z,15.00
2022-11-29T19:03:51.876Z,13.70
2022-11-29T19:04:51.897Z,14.10
2022-11-29T19:05:51.862Z,19.60
2022-11-29T19:06:51.831Z,15.70
2022-11-29T19:07:51.920Z,18.90
2022-11-29T19:08:51.782Z,18.90
2022-11-29T19:09:51.772Z,16.90
2022-11-29T19:10:51.783Z,18.30
2022-11-29T19:11:51.953Z,17.10
2022-11-29T19:12:51.896Z,17.30
2022-11-29T19:13:51.867Z,19.80
2022-11-29T19:14:52.053Z,18.60
2022-11-29T19:15:51.781Z,17.20
2022-11-29T19:16:51.804Z,14.60